Time;durP1;ratioP1;P1;durP2;ratioP2;P2;SDS_P1;SDS_P2;PMS_P1;PMS_P2;Temp;Humidity;BMP_temperature;BMP_pressure;BME280_temperature;BME280_humidity;BME280_pressure;Samples;Min_cycle;Max_cycle;Signal;HPM_P1;HPM_P2
2021/05/06 00:31:04;;;;;;;7.85;3.80;;;4.60;99.90;;;;;;4994589;28;20046;-85
2021/05/06 00:33:36;;;;;;;4.32;3.45;;;4.50;99.90;;;;;;4989442;28;20050;-84
2021/05/06 00:36:07;;;;;;;4.75;3.30;;;4.50;99.90;;;;;;4990037;28;20058;-84
2021/05/06 00:38:50;;;;;;;5.45;3.50;;;4.50;99.90;;;;;;4990464;28;20043;-86
2021/05/06 00:55:12;;;;;;;5.72;3.55;;;5.10;99.90;;;;;;5003935;28;20050;-84
2021/05/06 01:06:02;;;;;;;4.82;3.40;;;4.70;99.90;;;;;;5002384;28;20410;-86
2021/05/06 01:08:40;;;;;;;6.85;3.83;;;4.20;99.90;;;;;;5014289;28;20058;-82
2021/05/06 01:11:39;;;;;;;9.75;4.63;;;4.20;99.90;;;;;;5003066;28;20065;-83
2021/05/06 01:14:10;;;;;;;7.20;3.35;;;4.20;99.90;;;;;;5028599;28;20058;-82
2021/05/06 01:16:40;;;;;;;4.22;3.25;;;4.20;99.90;;;;;;5018624;28;20053;-84
2021/05/06 01:19:11;;;;;;;5.15;3.90;;;4.70;99.90;;;;;;5005917;28;20050;-84
2021/05/06 01:21:43;;;;;;;5.43;4.47;;;4.10;99.90;;;;;;5006866;28;20053;-84
2021/05/06 01:24:11;;;;;;;5.63;3.53;;;6.10;99.90;;;;;;5005356;28;20059;-85
2021/05/06 01:26:46;;;;;;;14.77;4.93;;;4.10;99.90;;;;;;5017436;28;20058;-85
2021/05/06 01:29:37;;;;;;;5.88;3.42;;;4.10;99.90;;;;;;5004150;28;20069;-84
2021/05/06 01:34:44;;;;;;;6.53;3.50;;;4.10;99.90;;;;;;5020698;28;20296;-84
2021/05/06 01:38:10;;;;;;;6.63;3.97;;;4.00;99.90;;;;;;5014293;28;20061;-82
2021/05/06 01:40:46;;;;;;;7.55;3.75;;;4.00;99.90;;;;;;4993010;28;20088;-85
2021/05/06 01:59:53;;;;;;;6.18;4.05;;;3.90;99.90;;;;;;4988948;28;20054;-86
2021/05/06 02:02:26;;;;;;;5.75;3.45;;;3.90;99.90;;;;;;4984426;28;20046;-85
2021/05/06 02:04:54;;;;;;;7.20;3.75;;;4.00;99.90;;;;;;4987573;28;20057;-83
2021/05/06 02:07:25;;;;;;;7.78;4.25;;;3.90;99.90;;;;;;4990485;28;20058;-86
2021/05/06 02:09:57;;;;;;;7.68;3.60;;;4.00;99.90;;;;;;5019539;28;20057;-84
2021/05/06 02:12:28;;;;;;;4.82;3.08;;;4.00;99.90;;;;;;5062088;23;20060;-83
2021/05/06 02:17:58;;;;;;;8.60;3.78;;;4.00;99.90;;;;;;5056213;28;20270;-88
2021/05/06 02:20:31;;;;;;;9.85;3.83;;;4.00;99.90;;;;;;5062587;28;20049;-85
2021/05/06 02:23:04;;;;;;;6.32;3.63;;;4.80;99.90;;;;;;5047342;28;20056;-85
2021/05/06 02:25:33;;;;;;;7.05;3.75;;;4.00;99.90;;;;;;5078548;28;20054;-86
2021/05/06 02:28:03;;;;;;;7.67;4.07;;;4.00;99.90;;;;;;5045781;28;20049;-84
2021/05/06 02:30:33;;;;;;;7.97;4.15;;;4.00;99.90;;;;;;5060010;28;20305;-84
2021/05/06 02:33:02;;;;;;;9.88;4.28;;;4.00;99.90;;;;;;5060958;28;20049;-85
2021/05/06 02:35:31;;;;;;;5.20;3.50;;;4.00;99.90;;;;;;5063304;28;20053;-85
2021/05/06 02:37:59;;;;;;;7.65;4.10;;;4.00;99.90;;;;;;5063329;28;20408;-86
2021/05/06 02:40:27;;;;;;;5.82;3.42;;;4.80;99.90;;;;;;5063104;28;20060;-84
2021/05/06 02:42:56;;;;;;;12.32;5.28;;;4.00;99.90;;;;;;5079696;28;20041;-86
2021/05/06 02:45:26;;;;;;;4.22;3.47;;;4.00;99.90;;;;;;5079674;28;20072;-85
2021/05/06 02:47:55;;;;;;;8.07;4.82;;;4.00;99.90;;;;;;5062936;28;20052;-83
2021/05/06 02:50:26;;;;;;;8.75;4.13;;;5.20;99.90;;;;;;5058867;28;20041;-85
2021/05/06 02:53:11;;;;;;;;;;;5.20;99.90;;;;;;5064012;28;20041;-82
2021/05/06 02:56:18;;;;;;;3.78;3.17;;;4.10;99.90;;;;;;5062911;28;19920;-84
2021/05/06 03:03:53;;;;;;;6.35;3.58;;;4.00;99.90;;;;;;5059297;28;20425;-86
2021/05/06 03:06:24;;;;;;;9.25;4.05;;;4.10;99.90;;;;;;5046683;28;20061;-87
2021/05/06 03:09:00;;;;;;;6.93;5.18;;;4.10;99.90;;;;;;5063337;28;20060;-85
2021/05/06 03:11:41;;;;;;;13.05;3.95;;;4.00;99.90;;;;;;5061926;28;20053;-87
2021/05/06 03:25:06;;;;;;;6.25;4.60;;;4.00;99.90;;;;;;5049503;28;20510;-87
2021/05/06 03:27:45;;;;;;;11.60;4.57;;;4.00;99.90;;;;;;5065318;28;20059;-85
2021/05/06 03:41:47;;;;;;;15.85;6.88;;;3.90;99.90;;;;;;5053918;28;20411;-84
2021/05/06 04:15:11;;;;;;;12.32;4.10;;;3.80;99.90;;;;;;5074699;28;20040;-84
2021/05/06 04:26:10;;;;;;;6.10;3.70;;;3.80;99.90;;;;;;5055739;28;20044;-83
2021/05/06 04:35:37;;;;;;;9.70;3.75;;;3.80;99.90;;;;;;5069803;28;20055;-82
2021/05/06 04:37:01;;;;;;;7.35;4.68;;;3.80;99.90;;;;;;5043170;28;20056;-84
2021/05/06 04:39:42;;;;;;;5.63;3.90;;;4.10;99.90;;;;;;5056680;28;20055;-84
2021/05/06 04:55:51;;;;;;;11.05;4.30;;;3.80;99.90;;;;;;5056427;28;20045;-84
2021/05/06 05:06:10;;;;;;;8.98;4.15;;;3.90;99.90;;;;;;5079299;28;20053;-85
2021/05/06 05:08:47;;;;;;;6.90;4.72;;;3.90;99.90;;;;;;5062809;28;20053;-85
2021/05/06 05:25:03;;;;;;;8.18;4.15;;;4.30;99.90;;;;;;5027368;28;20053;-84
2021/05/06 05:27:34;;;;;;;7.35;4.13;;;4.30;99.90;;;;;;5057813;28;20065;-83
2021/05/06 05:30:03;;;;;;;5.53;4.00;;;4.30;99.90;;;;;;5042210;28;20057;-84
2021/05/06 05:32:30;;;;;;;12.27;5.78;;;4.40;99.90;;;;;;5043275;28;20053;-85
2021/05/06 05:38:00;;;;;;;8.50;4.53;;;4.40;99.90;;;;;;5039696;28;20057;-86
2021/05/06 05:56:45;;;;;;;10.88;4.65;;;4.80;99.90;;;;;;5021077;28;20053;-83
2021/05/06 05:59:14;;;;;;;9.38;4.50;;;6.00;99.90;;;;;;5024061;28;20065;-84
2021/05/06 06:01:42;;;;;;;10.13;4.00;;;4.60;99.90;;;;;;5030240;28;20064;-84
2021/05/06 06:04:12;;;;;;;8.38;4.20;;;5.00;99.90;;;;;;5034206;28;20046;-85
2021/05/06 06:06:41;;;;;;;10.00;4.32;;;5.10;99.90;;;;;;5034531;28;20061;-84
2021/05/06 06:09:09;;;;;;;10.63;5.60;;;5.20;99.90;;;;;;5018476;28;20567;-84
2021/05/06 06:11:40;;;;;;;7.15;3.90;;;5.30;99.90;;;;;;5040643;28;20053;-84
2021/05/06 06:14:08;;;;;;;11.68;5.00;;;5.50;99.90;;;;;;5030921;28;20045;-83
2021/05/06 06:16:40;;;;;;;6.82;4.50;;;5.40;99.90;;;;;;5032918;28;20049;-83
2021/05/06 06:19:18;;;;;;;6.65;4.28;;;5.50;99.90;;;;;;5016125;28;20086;-82
2021/05/06 06:21:53;;;;;;;12.85;4.63;;;5.60;99.90;;;;;;5036402;28;20049;-83
2021/05/06 06:24:21;;;;;;;5.45;4.10;;;6.00;99.90;;;;;;5040602;28;20528;-83
2021/05/06 06:26:49;;;;;;;12.77;5.53;;;5.60;99.90;;;;;;5009589;28;20046;-83
2021/05/06 06:29:19;;;;;;;11.07;4.45;;;5.70;99.90;;;;;;5028480;28;20057;-84
2021/05/06 06:31:49;;;;;;;12.13;5.77;;;5.80;99.90;;;;;;5039924;28;20060;-83
2021/05/06 06:34:16;;;;;;;11.90;5.07;;;6.60;99.90;;;;;;5031632;28;20643;-85
2021/05/06 06:36:45;;;;;;;16.35;6.55;;;7.40;99.90;;;;;;5033270;28;20504;-83
2021/05/06 06:39:14;;;;;;;11.98;5.93;;;7.00;99.90;;;;;;5032302;28;20049;-84
2021/05/06 06:41:45;;;;;;;9.05;4.43;;;6.00;99.90;;;;;;5013994;28;20033;-81
2021/05/06 06:44:14;;;;;;;28.70;6.28;;;6.10;99.90;;;;;;5049805;28;20057;-84
2021/05/06 06:46:43;;;;;;;6.60;4.88;;;6.20;99.90;;;;;;5026315;28;20057;-89
2021/05/06 06:49:12;;;;;;;8.43;4.30;;;6.40;99.90;;;;;;5042506;28;20060;-89
2021/05/06 06:51:49;;;;;;;10.70;4.10;;;7.60;99.90;;;;;;5027532;28;20038;-89
2021/05/06 06:54:40;;;;;;;8.98;4.07;;;6.40;99.90;;;;;;5031861;28;20056;-91
2021/05/06 06:57:18;;;;;;;10.95;3.90;;;7.70;99.90;;;;;;4992589;28;20053;-90
2021/05/06 07:00:06;;;;;;;8.35;4.55;;;6.50;99.90;;;;;;5015092;28;20046;-91
2021/05/06 07:02:39;;;;;;;13.30;4.70;;;6.70;99.90;;;;;;5008549;28;20050;-90
2021/05/06 07:05:09;;;;;;;7.57;4.00;;;6.70;99.90;;;;;;5013079;28;20133;-90
2021/05/06 07:07:44;;;;;;;9.57;4.57;;;6.80;99.90;;;;;;5036479;28;20045;-91
2021/05/06 07:10:15;;;;;;;10.55;4.45;;;7.50;99.90;;;;;;5043285;28;20049;-90
2021/05/06 07:13:10;;;;;;;6.88;4.20;;;8.90;99.90;;;;;;5028542;28;20053;-91
2021/05/06 07:15:53;;;;;;;24.73;5.10;;;7.10;99.90;;;;;;5043098;28;20050;-90
2021/05/06 07:18:23;;;;;;;10.35;4.40;;;7.20;99.90;;;;;;5022895;28;20056;-90
2021/05/06 07:21:01;;;;;;;16.85;6.60;;;7.30;99.90;;;;;;5020359;28;20054;-90
2021/05/06 07:23:35;;;;;;;11.95;4.70;;;7.30;99.90;;;;;;5006688;28;20041;-91
2021/05/06 07:26:15;;;;;;;13.65;6.03;;;7.40;99.90;;;;;;5039504;28;20052;-87
2021/05/06 07:28:49;;;;;;;11.32;4.68;;;7.50;99.90;;;;;;5026333;28;20057;-90
2021/05/06 07:31:27;;;;;;;9.27;4.55;;;7.50;99.90;;;;;;5039910;28;20057;-91
2021/05/06 07:34:31;;;;;;;;;;;7.70;99.90;;;;;;5028455;28;20044;-90
2021/05/06 07:37:24;;;;;;;8.77;4.57;;;7.80;99.90;;;;;;5031484;28;19921;-92
2021/05/06 07:40:14;;;;;;;12.57;5.20;;;7.80;99.90;;;;;;5032038;28;20049;-92
2021/05/06 07:47:13;;;;;;;9.25;5.47;;;8.00;99.90;;;;;;5046263;28;20048;-91
2021/05/06 07:50:06;;;;;;;7.07;4.47;;;8.10;99.90;;;;;;5029048;28;20058;-91
2021/05/06 07:52:51;;;;;;;15.95;7.78;;;8.50;99.90;;;;;;5029938;28;20050;-90
2021/05/06 07:55:29;;;;;;;14.30;4.65;;;8.10;99.90;;;;;;5022987;28;20057;-92
2021/05/06 07:58:14;;;;;;;12.65;5.72;;;8.20;99.90;;;;;;5032846;28;20057;-91
2021/05/06 08:01:04;;;;;;;13.68;4.88;;;8.20;99.90;;;;;;5030270;28;20057;-92
2021/05/06 08:03:51;;;;;;;8.73;4.70;;;8.20;99.90;;;;;;5017180;28;20060;-91
2021/05/06 08:06:23;;;;;;;16.15;6.65;;;8.40;99.90;;;;;;5010291;28;20048;-91
2021/05/06 08:08:52;;;;;;;11.13;4.90;;;8.10;99.90;;;;;;5018589;28;20057;-91
2021/05/06 08:11:22;;;;;;;8.05;4.03;;;8.50;99.90;;;;;;5022456;28;20125;-90
2021/05/06 08:13:50;;;;;;;9.65;4.85;;;8.50;99.90;;;;;;5005961;28;20066;-89
2021/05/06 08:16:19;;;;;;;7.20;4.40;;;8.50;99.90;;;;;;5039461;28;20045;-90
2021/05/06 08:19:02;;;;;;;19.08;6.10;;;8.60;99.90;;;;;;5019827;28;20046;-91
2021/05/06 08:21:42;;;;;;;9.95;4.78;;;8.70;99.90;;;;;;5040816;28;20060;-90
2021/05/06 08:24:40;;;;;;;11.88;4.93;;;8.30;99.90;;;;;;5009681;28;20063;-91
2021/05/06 08:27:11;;;;;;;8.18;3.55;;;8.80;99.90;;;;;;5035508;28;20057;-90
2021/05/06 08:29:40;;;;;;;13.48;4.57;;;8.70;99.90;;;;;;5016679;28;20061;-89
2021/05/06 08:32:09;;;;;;;6.55;3.80;;;8.90;99.90;;;;;;5043549;28;20049;-88
2021/05/06 08:34:39;;;;;;;17.15;4.90;;;8.90;99.90;;;;;;5036777;28;20230;-89
2021/05/06 08:37:07;;;;;;;9.27;4.82;;;8.90;99.90;;;;;;5023510;28;20057;-89
2021/05/06 08:39:35;;;;;;;10.75;5.55;;;8.90;99.90;;;;;;5042647;28;20053;-89
2021/05/06 08:42:06;;;;;;;7.20;3.95;;;9.00;99.90;;;;;;5025811;28;20060;-90
2021/05/06 08:44:41;;;;;;;9.43;4.25;;;9.00;99.90;;;;;;5032642;28;20056;-90
2021/05/06 08:47:17;;;;;;;7.63;3.78;;;9.10;99.90;;;;;;4991476;28;20488;-91
2021/05/06 08:49:49;;;;;;;9.55;4.20;;;9.10;99.90;;;;;;5041943;28;20060;-89
2021/05/06 08:52:20;;;;;;;11.25;4.18;;;9.30;99.90;;;;;;5009233;28;20045;-89
2021/05/06 08:54:55;;;;;;;9.32;4.28;;;9.40;99.90;;;;;;5035626;28;20042;-89
2021/05/06 08:57:26;;;;;;;15.35;4.22;;;9.40;99.90;;;;;;5016928;28;20053;-89
2021/05/06 08:59:54;;;;;;;7.82;5.32;;;9.60;99.90;;;;;;5026126;28;20041;-89
2021/05/06 09:02:22;;;;;;;8.43;3.38;;;9.70;99.90;;;;;;5015403;28;20064;-89
2021/05/06 09:04:54;;;;;;;12.48;4.30;;;9.80;99.90;;;;;;5036274;28;20053;-89
2021/05/06 09:07:31;;;;;;;7.72;3.72;;;10.00;99.90;;;;;;5041077;28;20060;-89
2021/05/06 09:10:03;;;;;;;10.38;4.47;;;10.10;99.90;;;;;;5054630;28;20164;-90
2021/05/06 09:12:42;;;;;;;5.50;2.60;;;10.10;99.90;;;;;;5027027;28;20409;-90
2021/05/06 09:15:16;;;;;;;7.72;3.00;;;10.50;99.90;;;;;;5012079;28;20050;-90
2021/05/06 09:17:43;;;;;;;7.03;3.33;;;10.30;99.90;;;;;;5021936;28;20417;-90
2021/05/06 09:20:13;;;;;;;15.32;3.30;;;10.40;99.90;;;;;;5047145;28;20057;-88
2021/05/06 09:22:45;;;;;;;8.03;3.10;;;10.50;99.90;;;;;;5019615;28;20049;-90
2021/05/06 09:25:27;;;;;;;5.65;3.28;;;10.60;99.90;;;;;;5035184;28;20310;-92
2021/05/06 09:28:06;;;;;;;5.22;2.55;;;10.70;99.90;;;;;;5049933;28;20058;-89
2021/05/06 09:30:50;;;;;;;7.60;2.70;;;10.80;99.90;;;;;;5031428;28;20100;-89
2021/05/06 09:33:38;;;;;;;15.98;3.90;;;10.90;99.90;;;;;;5022633;28;20045;-90
2021/05/06 09:36:15;;;;;;;9.63;4.13;;;10.90;99.90;;;;;;5026517;28;20064;-90
2021/05/06 09:38:54;;;;;;;4.50;2.70;;;11.00;99.90;;;;;;5015294;28;20052;-91
2021/05/06 09:41:39;;;;;;;7.38;2.60;;;11.10;99.90;;;;;;5026339;23;20061;-88
2021/05/06 09:44:12;;;;;;;8.27;1.98;;;11.20;99.90;;;;;;5045859;28;20069;-90
2021/05/06 09:47:13;;;;;;;8.52;2.78;;;11.30;99.90;;;;;;5044946;28;20059;-91
2021/05/06 09:49:50;;;;;;;3.33;2.05;;;11.50;99.90;;;;;;5000540;28;20560;-92
2021/05/06 09:52:18;;;;;;;6.18;2.80;;;11.60;99.90;;;;;;5029968;28;20046;-90
2021/05/06 09:54:54;;;;;;;9.35;2.40;;;11.60;99.90;;;;;;5043127;28;20045;-90
2021/05/06 09:57:35;;;;;;;5.22;2.15;;;11.70;99.90;;;;;;5039167;28;20058;-90
2021/05/06 10:00:12;;;;;;;;;;;11.70;99.90;;;;;;5040979;28;20041;-89
2021/05/06 10:02:44;;;;;;;9.23;1.95;;;11.70;98.90;;;;;;5011980;28;19940;-89
2021/05/06 10:05:36;;;;;;;7.10;1.95;;;11.70;99.90;;;;;;5029527;28;20056;-89
2021/05/06 10:08:09;;;;;;;8.07;2.67;;;11.80;99.90;;;;;;5033891;28;20050;-89
2021/05/06 10:10:38;;;;;;;4.35;2.17;;;12.00;99.80;;;;;;5031902;28;20481;-90
2021/05/06 10:13:18;;;;;;;2.78;1.75;;;12.10;98.80;;;;;;4994796;28;20054;-90
2021/05/06 10:15:46;;;;;;;6.35;3.05;;;12.30;98.10;;;;;;5010410;28;20072;-90
2021/05/06 10:18:17;;;;;;;8.23;3.85;;;12.40;98.30;;;;;;5004321;28;20125;-90
2021/05/06 10:20:47;;;;;;;6.80;2.43;;;12.40;97.40;;;;;;5019016;28;20056;-89
2021/05/06 10:23:18;;;;;;;2.90;1.67;;;12.50;96.00;;;;;;5017511;28;20809;-90
2021/05/06 10:25:46;;;;;;;5.55;2.45;;;12.50;95.20;;;;;;5003521;28;20068;-90
2021/05/06 10:28:15;;;;;;;2.75;1.80;;;12.60;94.10;;;;;;5012358;28;20054;-91
2021/05/06 10:30:45;;;;;;;3.95;1.88;;;11.70;93.70;;;;;;5008599;28;20053;-90
2021/05/06 10:33:28;;;;;;;5.68;2.15;;;12.60;93.40;;;;;;5003858;28;20050;-91
2021/05/06 10:35:58;;;;;;;;;;;12.80;93.70;;;;;;5010442;28;20046;-91
2021/05/06 10:38:34;;;;;;;7.03;2.55;;;12.90;91.70;;;;;;5023655;28;19929;-90
2021/05/06 10:41:25;;;;;;;7.47;2.50;;;13.00;91.00;;;;;;5019644;28;20061;-91
2021/05/06 10:44:07;;;;;;;9.25;2.38;;;13.10;90.40;;;;;;5019352;28;20047;-90
2021/05/06 10:47:00;;;;;;;5.28;1.90;;;13.10;91.40;;;;;;5008179;28;20052;-91
2021/05/06 10:49:30;;;;;;;2.90;1.73;;;13.10;90.50;;;;;;5023531;28;20049;-89
2021/05/06 10:52:00;;;;;;;5.90;2.25;;;13.20;90.50;;;;;;5027057;28;20068;-90
2021/05/06 10:54:40;;;;;;;4.53;1.90;;;13.10;90.70;;;;;;5007191;28;20046;-91
2021/05/06 10:57:15;;;;;;;7.65;1.67;;;13.10;90.20;;;;;;5022834;28;20049;-90
2021/05/06 10:59:47;;;;;;;5.13;1.70;;;13.20;89.00;;;;;;5006564;28;20050;-89
2021/05/06 11:02:38;;;;;;;8.55;1.80;;;13.30;89.20;;;;;;5008994;28;20042;-89
2021/05/06 11:05:23;;;;;;;3.42;1.60;;;13.40;86.50;;;;;;5052358;28;20054;-90
2021/05/06 11:08:06;;;;;;;9.48;2.22;;;13.30;85.80;;;;;;5032548;28;20060;-89
2021/05/06 11:10:46;;;;;;;4.22;2.15;;;13.10;85.10;;;;;;5002465;28;20064;-90
2021/05/06 11:13:26;;;;;;;3.13;1.45;;;13.00;84.60;;;;;;5010714;28;20042;-89
2021/05/06 11:16:18;;;;;;;7.50;3.25;;;12.90;85.00;;;;;;5020230;28;20054;-88
2021/05/06 11:18:51;;;;;;;7.53;3.90;;;12.70;91.10;;;;;;5002760;28;20050;-89
2021/05/06 11:21:40;;;;;;;17.85;3.35;;;11.00;94.00;;;;;;4994327;28;20050;-89
2021/05/06 11:24:20;;;;;;;7.35;3.65;;;11.90;97.30;;;;;;5022145;28;20060;-89
2021/05/06 11:27:12;;;;;;;5.63;2.75;;;11.60;99.20;;;;;;5046061;23;20120;-89
2021/05/06 11:29:45;;;;;;;3.55;2.33;;;11.20;99.90;;;;;;5023500;28;20045;-89
2021/05/06 11:32:34;;;;;;;5.03;2.80;;;11.00;99.90;;;;;;5032135;28;20054;-89
2021/05/06 11:35:04;;;;;;;5.72;2.80;;;10.90;99.90;;;;;;5022569;28;20056;-90
2021/05/06 11:37:37;;;;;;;6.57;2.35;;;10.70;99.90;;;;;;5015338;28;20057;-88
2021/05/06 11:40:16;;;;;;;8.50;2.60;;;10.60;99.90;;;;;;5023906;28;20045;-88
2021/05/06 11:42:52;;;;;;;5.40;2.70;;;10.50;99.90;;;;;;5032798;28;20292;-89
2021/05/06 11:45:24;;;;;;;6.95;2.97;;;10.60;99.90;;;;;;5001293;28;20046;-89
2021/05/06 11:47:57;;;;;;;5.38;2.45;;;10.40;99.90;;;;;;5019922;28;20046;-91
2021/05/06 11:50:33;;;;;;;2.95;2.05;;;10.30;99.90;;;;;;5038908;28;20050;-89
2021/05/06 11:53:04;;;;;;;4.80;3.35;;;10.30;99.90;;;;;;5020174;28;20524;-85
2021/05/06 11:55:39;;;;;;;8.27;3.33;;;10.20;99.90;;;;;;5008551;28;20037;-88
2021/05/06 11:58:38;;;;;;;4.13;2.67;;;10.20;99.90;;;;;;5020405;28;20068;-88
2021/05/06 12:01:24;;;;;;;10.27;3.20;;;10.10;99.90;;;;;;4996155;28;20050;-88
2021/05/06 12:04:00;;;;;;;5.30;2.65;;;10.10;99.90;;;;;;4996329;28;20046;-87
2021/05/06 12:06:45;;;;;;;7.35;3.78;;;10.10;99.90;;;;;;5011452;28;20064;-88
2021/05/06 12:09:25;;;;;;;11.55;5.13;;;10.10;99.90;;;;;;5010826;28;20053;-89
2021/05/06 12:11:58;;;;;;;7.20;3.20;;;10.10;99.90;;;;;;5055309;23;20317;-87
2021/05/06 12:14:39;;;;;;;3.97;2.72;;;10.10;99.90;;;;;;5021141;28;20516;-89
2021/05/06 12:17:18;;;;;;;4.75;3.38;;;10.50;99.90;;;;;;5015176;28;20062;-88
2021/05/06 12:19:49;;;;;;;5.28;2.30;;;10.30;99.90;;;;;;5016907;28;20049;-87
2021/05/06 12:22:22;;;;;;;11.77;4.15;;;10.40;99.90;;;;;;5006943;28;20042;-88
2021/05/06 12:24:55;;;;;;;8.70;2.97;;;10.50;99.90;;;;;;5011259;28;20053;-85
2021/05/06 12:27:31;;;;;;;9.10;2.70;;;10.70;99.90;;;;;;5035249;28;20080;-87
2021/05/06 12:30:01;;;;;;;3.60;2.38;;;10.80;99.90;;;;;;5017103;28;20058;-88
2021/05/06 12:32:33;;;;;;;4.35;2.40;;;11.00;99.90;;;;;;5019196;28;20045;-91
2021/05/06 12:35:05;;;;;;;3.40;2.17;;;11.10;99.90;;;;;;5016309;28;20064;-89
2021/05/06 12:37:53;;;;;;;8.32;2.78;;;11.40;99.90;;;;;;5035233;28;20053;-89
2021/05/06 12:40:28;;;;;;;2.03;1.83;;;11.60;99.90;;;;;;4999252;28;20045;-92
2021/05/06 12:43:18;;;;;;;5.55;2.65;;;11.90;99.90;;;;;;5029237;28;20056;-89
2021/05/06 12:46:10;;;;;;;7.82;2.45;;;12.10;99.90;;;;;;5015945;28;20056;-88
2021/05/06 12:48:58;;;;;;;3.15;2.42;;;12.20;99.90;;;;;;5032628;28;20049;-88
2021/05/06 12:51:32;;;;;;;6.60;2.80;;;12.20;99.30;;;;;;5033478;28;20057;-88
2021/05/06 12:54:11;;;;;;;9.27;3.45;;;12.10;98.90;;;;;;5012146;28;20037;-88
2021/05/06 12:56:47;;;;;;;6.82;3.30;;;12.00;99.80;;;;;;5008034;28;20121;-89
2021/05/06 12:59:24;;;;;;;7.18;2.80;;;12.00;99.90;;;;;;5004090;28;20524;-88
2021/05/06 13:02:06;;;;;;;4.22;2.85;;;12.00;99.90;;;;;;5032535;28;20073;-88
2021/05/06 13:04:50;;;;;;;8.48;3.60;;;12.20;99.90;;;;;;5016498;28;20056;-90
2021/05/06 13:07:21;;;;;;;7.43;4.43;;;12.40;99.90;;;;;;4996559;28;20060;-89
2021/05/06 13:09:52;;;;;;;8.57;4.25;;;12.50;99.90;;;;;;5038558;28;20049;-90
2021/05/06 13:12:23;;;;;;;6.53;3.80;;;12.60;99.90;;;;;;4999679;28;20054;-92
2021/05/06 13:15:04;;;;;;;6.90;3.08;;;12.60;99.90;;;;;;5025106;28;20072;-88
2021/05/06 13:17:35;;;;;;;8.13;3.63;;;12.50;99.90;;;;;;4998271;28;20045;-90
2021/05/06 13:20:27;;;;;;;14.07;3.55;;;12.30;99.90;;;;;;5015318;28;20294;-92
2021/05/06 13:23:23;;;;;;;7.30;3.15;;;13.40;99.90;;;;;;4988813;28;20046;-89
2021/05/06 13:25:54;;;;;;;4.72;3.10;;;12.10;99.90;;;;;;5010156;28;20056;-90
2021/05/06 13:28:31;;;;;;;9.80;3.38;;;12.00;99.90;;;;;;5029910;28;20076;-89
2021/05/06 13:31:11;;;;;;;6.95;3.30;;;11.90;99.90;;;;;;4995740;28;20041;-89
2021/05/06 13:33:41;;;;;;;8.82;4.40;;;12.00;99.90;;;;;;5017966;28;20061;-89
2021/05/06 13:36:14;;;;;;;5.65;3.67;;;12.10;99.90;;;;;;5015624;28;20042;-88
2021/05/06 13:39:08;;;;;;;14.55;4.63;;;12.10;99.90;;;;;;5002618;28;20053;-89
2021/05/06 13:41:42;;;;;;;8.95;4.40;;;12.20;99.90;;;;;;5004342;28;20045;-91
2021/05/06 13:44:13;;;;;;;9.75;4.72;;;12.20;99.90;;;;;;5037017;28;20054;-88
2021/05/06 13:46:59;;;;;;;7.45;3.85;;;12.30;99.90;;;;;;5004472;28;20049;-89
2021/05/06 13:49:30;;;;;;;9.25;5.07;;;12.40;99.90;;;;;;5016806;28;20049;-90
2021/05/06 13:52:05;;;;;;;9.20;5.22;;;12.40;99.90;;;;;;4994071;28;20050;-90
2021/05/06 13:54:36;;;;;;;8.65;5.13;;;12.30;99.90;;;;;;5003312;28;20075;-90
2021/05/06 13:57:26;;;;;;;8.35;5.97;;;12.20;99.90;;;;;;5044026;28;20037;-96
2021/05/06 13:59:55;;;;;;;10.40;5.47;;;12.10;99.90;;;;;;5013016;28;20049;-93
2021/05/06 14:02:44;;;;;;;9.07;5.28;;;12.00;99.90;;;;;;5013660;28;20057;-93
2021/05/06 14:05:22;;;;;;;11.27;5.22;;;12.00;99.90;;;;;;5048260;28;20045;-93
2021/05/06 14:07:53;;;;;;;11.98;5.53;;;11.50;99.90;;;;;;5039962;28;20068;-89
2021/05/06 14:10:21;;;;;;;9.32;5.75;;;12.60;99.90;;;;;;5029841;28;20389;-90
2021/05/06 14:12:54;;;;;;;10.95;4.65;;;13.00;99.90;;;;;;4958520;28;20068;-86
2021/05/06 14:15:36;;;;;;;15.38;5.50;;;13.40;99.90;;;;;;4975183;28;20064;-93
2021/05/06 14:18:27;;;;;;;8.00;4.72;;;14.00;99.90;;;;;;4969735;28;20053;-93
2021/05/06 14:21:00;;;;;;;11.10;4.70;;;14.50;99.20;;;;;;4976026;28;20494;-89
2021/05/06 14:23:34;;;;;;;4.05;2.85;;;15.00;98.40;;;;;;4955246;28;20050;-92
2021/05/06 14:26:06;;;;;;;4.43;3.25;;;15.50;95.20;;;;;;4980216;28;20066;-93
2021/05/06 14:28:38;;;;;;;7.72;3.20;;;15.60;93.60;;;;;;4956210;28;20498;-87
2021/05/06 14:31:09;;;;;;;8.50;4.00;;;16.00;93.60;;;;;;4984157;28;20054;-88
2021/05/06 14:33:40;;;;;;;10.98;4.35;;;16.40;92.30;;;;;;4987167;28;20042;-91
2021/05/06 14:36:13;;;;;;;5.67;3.03;;;16.80;86.60;;;;;;4951332;28;20069;-92
2021/05/06 14:38:48;;;;;;;9.05;2.72;;;17.10;87.60;;;;;;4962866;28;20050;-91
2021/05/06 14:41:17;;;;;;;7.05;2.88;;;17.90;83.60;;;;;;4944352;28;20062;-89
2021/05/06 14:43:49;;;;;;;5.55;2.80;;;17.60;75.30;;;;;;4963870;28;20047;-89
2021/05/06 14:46:21;;;;;;;7.93;3.75;;;17.40;73.20;;;;;;4964540;28;20053;-89
2021/05/06 14:48:50;;;;;;;4.38;2.72;;;16.90;73.00;;;;;;4970619;28;20039;-88
2021/05/06 14:51:22;;;;;;;8.32;3.20;;;16.20;72.50;;;;;;4966433;28;20054;-89
2021/05/06 14:53:50;;;;;;;6.35;3.05;;;15.60;73.40;;;;;;4981146;28;20042;-90
2021/05/06 14:56:18;;;;;;;6.80;3.17;;;15.40;75.60;;;;;;4992460;28;20046;-86
2021/05/06 14:58:48;;;;;;;9.15;4.10;;;15.40;75.20;;;;;;4977667;28;20050;-91
2021/05/06 15:01:17;;;;;;;5.57;2.80;;;15.20;75.60;;;;;;4947099;28;20055;-90
2021/05/06 15:03:54;;;;;;;8.80;3.20;;;15.30;75.10;;;;;;4993390;28;20062;-91
2021/05/06 15:06:26;;;;;;;9.10;2.72;;;15.70;75.70;;;;;;4966195;28;20557;-90
2021/05/06 15:08:55;;;;;;;3.10;1.73;;;16.20;71.80;;;;;;4964947;28;20058;-89
2021/05/06 15:11:25;;;;;;;;;;;16.50;70.40;;;;;;4972191;28;20402;-91
2021/05/06 15:13:54;;;;;;;7.07;2.05;;;16.50;65.80;;;;;;5000581;28;19921;-90
2021/05/06 15:16:22;;;;;;;2.85;2.20;;;16.20;67.00;;;;;;5001159;28;20046;-91
2021/05/06 15:18:55;;;;;;;4.28;2.17;;;15.90;66.00;;;;;;4997720;28;20046;-91
2021/05/06 15:21:29;;;;;;;5.50;1.90;;;15.80;66.10;;;;;;4985973;28;20075;-91
2021/05/06 15:24:00;;;;;;;5.85;2.10;;;16.10;66.00;;;;;;4980163;28;20054;-91
2021/05/06 15:26:28;;;;;;;8.43;2.72;;;16.70;64.50;;;;;;5009270;28;20060;-90
2021/05/06 15:28:56;;;;;;;4.72;2.25;;;17.30;62.00;;;;;;4998455;28;20045;-87
2021/05/06 15:31:24;;;;;;;12.23;3.63;;;18.00;58.30;;;;;;4964018;28;20057;-91
2021/05/06 15:34:00;;;;;;;3.65;2.05;;;18.30;51.70;;;;;;4984171;28;20054;-91
2021/05/06 15:36:40;;;;;;;3.72;2.03;;;18.10;48.70;;;;;;5013020;28;20490;-88
2021/05/06 15:39:09;;;;;;;3.30;1.80;;;17.60;47.30;;;;;;5002027;28;20060;-92
2021/05/06 15:41:46;;;;;;;4.70;2.08;;;17.30;48.70;;;;;;4986001;28;20515;-89
2021/05/06 15:44:24;;;;;;;11.98;1.80;;;17.40;48.90;;;;;;4968322;28;20058;-90
2021/05/06 15:46:58;;;;;;;1.48;1.10;;;17.60;46.50;;;;;;4994583;28;20355;-89
2021/05/06 15:49:36;;;;;;;3.10;1.30;;;18.00;46.30;;;;;;4997350;28;20064;-90
2021/05/06 15:52:10;;;;;;;2.10;1.90;;;18.50;43.50;;;;;;5007511;28;20062;-88
2021/05/06 15:54:48;;;;;;;4.63;1.60;;;18.90;43.70;;;;;;4999045;28;20038;-90
2021/05/06 15:57:17;;;;;;;2.15;1.40;;;19.30;40.60;;;;;;5018701;28;20052;-89
2021/05/06 15:59:54;;;;;;;1.45;1.30;;;19.30;41.50;;;;;;4979710;28;20053;-88
2021/05/06 16:02:45;;;;;;;2.38;1.45;;;19.40;41.40;;;;;;4983120;28;20048;-86
2021/05/06 16:05:23;;;;;;;3.78;1.50;;;19.60;41.70;;;;;;5004734;28;20054;-89
2021/05/06 16:07:58;;;;;;;;;;;19.90;42.00;;;;;;5005322;28;20050;-87
2021/05/06 16:10:26;;;;;;;2.97;1.63;;;20.10;39.80;;;;;;4980453;28;20509;-88
2021/05/06 16:12:56;;;;;;;3.40;1.95;;;20.40;41.00;;;;;;5025901;28;20421;-86
2021/05/06 16:15:29;;;;;;;3.60;1.55;;;20.50;40.60;;;;;;5018390;28;20054;-86
2021/05/06 16:17:59;;;;;;;3.08;1.67;;;20.70;40.80;;;;;;4995065;28;20046;-87
2021/05/06 16:20:41;;;;;;;4.97;1.98;;;20.80;41.20;;;;;;4998706;28;20055;-88
2021/05/06 16:23:30;;;;;;;2.17;1.52;;;21.20;41.30;;;;;;5007850;28;20056;-88
2021/05/06 16:26:04;;;;;;;2.95;1.30;;;21.30;40.90;;;;;;4983707;28;20042;-88
2021/05/06 16:28:35;;;;;;;3.53;2.08;;;21.50;40.40;;;;;;4992882;28;20060;-88
2021/05/06 16:31:07;;;;;;;6.95;2.00;;;21.50;40.20;;;;;;5008989;28;20046;-88
2021/05/06 16:33:40;;;;;;;;;;;21.70;39.10;;;;;;4993687;28;20060;-86
2021/05/06 16:36:18;;;;;;;5.10;1.70;;;21.80;38.30;;;;;;4987964;28;19925;-88
2021/05/06 16:41:30;;;;;;;4.10;1.80;;;21.10;40.30;;;;;;4998593;28;20057;-88
2021/05/06 16:44:06;;;;;;;5.63;1.70;;;21.00;40.70;;;;;;5004268;28;20052;-88
2021/05/06 16:46:42;;;;;;;6.53;3.13;;;21.00;40.90;;;;;;5022313;28;20057;-89
2021/05/06 16:49:14;;;;;;;4.05;1.60;;;21.20;40.40;;;;;;5008397;28;20038;-89
2021/05/06 16:51:52;;;;;;;2.45;1.55;;;21.20;39.40;;;;;;4989649;28;20065;-90
2021/05/06 16:55:16;;;;;;;4.15;1.55;;;21.20;39.10;;;;;;4996504;28;20042;-90
2021/05/06 16:57:59;;;;;;;3.40;1.67;;;21.30;37.70;;;;;;4986746;28;20057;-89
2021/05/06 17:00:34;;;;;;;3.47;1.95;;;21.30;39.20;;;;;;4983057;28;20079;-91
2021/05/06 17:03:17;;;;;;;4.82;1.63;;;21.10;39.20;;;;;;5006747;28;20050;-90